sensor_id;sensor_type;location;lat;lon;timestamp;temperature;humidity
46766;DHT22;32527;51.986;5.842;2022-08-06T00:02:10;13.20;99.90
46766;DHT22;32527;51.986;5.842;2022-08-06T00:04:36;13.10;99.90
46766;DHT22;32527;51.986;5.842;2022-08-06T00:07:01;13.70;99.90
46766;DHT22;32527;51.986;5.842;2022-08-06T00:09:27;13.00;99.90
46766;DHT22;32527;51.986;5.842;2022-08-06T00:12:00;13.00;99.90
46766;DHT22;32527;51.986;5.842;2022-08-06T00:14:30;13.60;99.90
46766;DHT22;32527;51.986;5.842;2022-08-06T00:16:56;13.20;99.90
46766;DHT22;32527;51.986;5.842;2022-08-06T00:19:23;13.10;99.90
46766;DHT22;32527;51.986;5.842;2022-08-06T00:21:49;13.20;99.90
46766;DHT22;32527;51.986;5.842;2022-08-06T00:24:15;12.90;99.90
46766;DHT22;32527;51.986;5.842;2022-08-06T00:26:41;13.20;99.90
46766;DHT22;32527;51.986;5.842;2022-08-06T00:31:34;13.50;99.90
46766;DHT22;32527;51.986;5.842;2022-08-06T00:34:00;13.10;99.90
46766;DHT22;32527;51.986;5.842;2022-08-06T00:36:28;13.00;99.90
46766;DHT22;32527;51.986;5.842;2022-08-06T00:38:59;12.90;99.90
46766;DHT22;32527;51.986;5.842;2022-08-06T00:41:26;13.10;99.90
46766;DHT22;32527;51.986;5.842;2022-08-06T00:48:44;13.10;99.90
46766;DHT22;32527;51.986;5.842;2022-08-06T00:51:10;13.00;99.90
46766;DHT22;32527;51.986;5.842;2022-08-06T00:53:35;13.10;99.90
46766;DHT22;32527;51.986;5.842;2022-08-06T00:56:03;13.50;99.90
46766;DHT22;32527;51.986;5.842;2022-08-06T00:58:29;13.30;99.90
46766;DHT22;32527;51.986;5.842;2022-08-06T01:00:55;13.20;99.90
46766;DHT22;32527;51.986;5.842;2022-08-06T01:03:21;13.00;99.90
46766;DHT22;32527;51.986;5.842;2022-08-06T01:05:46;13.10;99.90
46766;DHT22;32527;51.986;5.842;2022-08-06T01:08:12;13.40;99.90
46766;DHT22;32527;51.986;5.842;2022-08-06T01:10:38;12.90;99.90
46766;DHT22;32527;51.986;5.842;2022-08-06T01:13:04;13.10;99.90
46766;DHT22;32527;51.986;5.842;2022-08-06T01:15:34;13.10;99.90
46766;DHT22;32527;51.986;5.842;2022-08-06T01:18:15;13.10;99.90
46766;DHT22;32527;51.986;5.842;2022-08-06T01:28:51;13.20;99.90
46766;DHT22;32527;51.986;5.842;2022-08-06T01:34:18;13.30;99.90
46766;DHT22;32527;51.986;5.842;2022-08-06T01:36:50;13.10;99.90
46766;DHT22;32527;51.986;5.842;2022-08-06T01:39:20;13.50;99.90
46766;DHT22;32527;51.986;5.842;2022-08-06T01:41:49;13.10;99.90
46766;DHT22;32527;51.986;5.842;2022-08-06T01:44:19;13.10;99.90
46766;DHT22;32527;51.986;5.842;2022-08-06T01:46:55;12.90;99.90
46766;DHT22;32527;51.986;5.842;2022-08-06T01:49:29;13.10;99.90
46766;DHT22;32527;51.986;5.842;2022-08-06T01:51:57;13.30;99.90
46766;DHT22;32527;51.986;5.842;2022-08-06T01:54:24;12.80;99.90
46766;DHT22;32527;51.986;5.842;2022-08-06T01:56:52;12.90;99.90
46766;DHT22;32527;51.986;5.842;2022-08-06T01:59:23;12.40;99.90
46766;DHT22;32527;51.986;5.842;2022-08-06T02:01:53;13.10;99.90
46766;DHT22;32527;51.986;5.842;2022-08-06T02:04:24;13.00;99.90
46766;DHT22;32527;51.986;5.842;2022-08-06T02:06:51;13.40;99.90
46766;DHT22;32527;51.986;5.842;2022-08-06T02:09:20;13.30;99.90
46766;DHT22;32527;51.986;5.842;2022-08-06T02:11:53;12.90;99.90
46766;DHT22;32527;51.986;5.842;2022-08-06T02:14:21;13.00;99.90
46766;DHT22;32527;51.986;5.842;2022-08-06T02:16:48;13.00;99.90
46766;DHT22;32527;51.986;5.842;2022-08-06T02:19:15;12.90;99.90
46766;DHT22;32527;51.986;5.842;2022-08-06T02:21:42;13.10;99.90
46766;DHT22;32527;51.986;5.842;2022-08-06T02:24:10;12.90;99.90
46766;DHT22;32527;51.986;5.842;2022-08-06T02:26:37;12.70;99.90
46766;DHT22;32527;51.986;5.842;2022-08-06T02:29:11;12.50;99.90
46766;DHT22;32527;51.986;5.842;2022-08-06T02:31:37;12.60;99.90
46766;DHT22;32527;51.986;5.842;2022-08-06T02:36:40;12.60;99.90
46766;DHT22;32527;51.986;5.842;2022-08-06T02:39:11;12.60;99.90
46766;DHT22;32527;51.986;5.842;2022-08-06T02:41:49;12.30;99.90
46766;DHT22;32527;51.986;5.842;2022-08-06T02:44:28;12.40;99.90
46766;DHT22;32527;51.986;5.842;2022-08-06T02:47:08;12.80;99.90
46766;DHT22;32527;51.986;5.842;2022-08-06T02:49:41;12.00;99.90
46766;DHT22;32527;51.986;5.842;2022-08-06T02:52:15;12.30;99.90
46766;DHT22;32527;51.986;5.842;2022-08-06T02:54:50;12.30;99.90
46766;DHT22;32527;51.986;5.842;2022-08-06T02:57:23;12.60;99.90
46766;DHT22;32527;51.986;5.842;2022-08-06T02:59:53;12.20;99.90
46766;DHT22;32527;51.986;5.842;2022-08-06T03:02:22;11.80;99.90
46766;DHT22;32527;51.986;5.842;2022-08-06T03:04:48;12.20;99.90
46766;DHT22;32527;51.986;5.842;2022-08-06T03:07:16;12.30;99.90
46766;DHT22;32527;51.986;5.842;2022-08-06T03:09:46;12.00;99.90
46766;DHT22;32527;51.986;5.842;2022-08-06T03:12:15;12.00;99.90
46766;DHT22;32527;51.986;5.842;2022-08-06T03:14:42;12.50;99.90
46766;DHT22;32527;51.986;5.842;2022-08-06T03:17:11;12.10;99.90
46766;DHT22;32527;51.986;5.842;2022-08-06T03:19:39;11.80;99.90
46766;DHT22;32527;51.986;5.842;2022-08-06T03:22:06;12.20;99.90
46766;DHT22;32527;51.986;5.842;2022-08-06T03:24:34;11.90;99.90
46766;DHT22;32527;51.986;5.842;2022-08-06T03:27:02;11.60;99.90
46766;DHT22;32527;51.986;5.842;2022-08-06T03:29:28;12.20;99.90
46766;DHT22;32527;51.986;5.842;2022-08-06T03:31:55;11.70;99.90
46766;DHT22;32527;51.986;5.842;2022-08-06T03:34:21;11.60;99.90
46766;DHT22;32527;51.986;5.842;2022-08-06T03:39:14;12.00;99.90
46766;DHT22;32527;51.986;5.842;2022-08-06T03:41:41;11.90;99.90
46766;DHT22;32527;51.986;5.842;2022-08-06T03:44:07;12.10;99.90
46766;DHT22;32527;51.986;5.842;2022-08-06T03:46:43;11.90;99.90
46766;DHT22;32527;51.986;5.842;2022-08-06T03:49:14;11.30;99.90
46766;DHT22;32527;51.986;5.842;2022-08-06T03:51:43;11.50;99.90
46766;DHT22;32527;51.986;5.842;2022-08-06T03:54:25;11.50;99.90
46766;DHT22;32527;51.986;5.842;2022-08-06T03:57:14;11.60;99.90
46766;DHT22;32527;51.986;5.842;2022-08-06T03:59:56;11.50;99.90
46766;DHT22;32527;51.986;5.842;2022-08-06T04:03:09;11.50;99.90
46766;DHT22;32527;51.986;5.842;2022-08-06T04:05:48;11.50;99.90
46766;DHT22;32527;51.986;5.842;2022-08-06T04:10:46;11.40;99.90
46766;DHT22;32527;51.986;5.842;2022-08-06T04:13:32;11.40;99.90
46766;DHT22;32527;51.986;5.842;2022-08-06T04:16:04;11.40;99.90
46766;DHT22;32527;51.986;5.842;2022-08-06T04:18:37;11.30;99.90
46766;DHT22;32527;51.986;5.842;2022-08-06T04:21:06;11.30;99.90
46766;DHT22;32527;51.986;5.842;2022-08-06T04:26:09;11.30;99.90
46766;DHT22;32527;51.986;5.842;2022-08-06T04:28:42;11.30;99.90
46766;DHT22;32527;51.986;5.842;2022-08-06T04:31:13;11.40;99.90
46766;DHT22;32527;51.986;5.842;2022-08-06T04:36:36;11.50;99.90
46766;DHT22;32527;51.986;5.842;2022-08-06T04:39:08;11.50;99.90
46766;DHT22;32527;51.986;5.842;2022-08-06T04:46:29;11.60;99.90
46766;DHT22;32527;51.986;5.842;2022-08-06T04:56:26;11.80;99.90
46766;DHT22;32527;51.986;5.842;2022-08-06T05:01:28;11.80;99.90
46766;DHT22;32527;51.986;5.842;2022-08-06T05:09:29;12.00;99.90
46766;DHT22;32527;51.986;5.842;2022-08-06T05:12:09;12.00;99.90
46766;DHT22;32527;51.986;5.842;2022-08-06T05:14:52;12.10;99.90
46766;DHT22;32527;51.986;5.842;2022-08-06T05:17:22;12.20;99.90
46766;DHT22;32527;51.986;5.842;2022-08-06T05:20:09;12.30;99.90
46766;DHT22;32527;51.986;5.842;2022-08-06T05:22:36;12.30;99.90
46766;DHT22;32527;51.986;5.842;2022-08-06T05:25:08;12.50;99.90
46766;DHT22;32527;51.986;5.842;2022-08-06T05:32:47;12.60;99.90
46766;DHT22;32527;51.986;5.842;2022-08-06T05:35:17;12.60;99.90
46766;DHT22;32527;51.986;5.842;2022-08-06T05:37:55;12.60;99.90
46766;DHT22;32527;51.986;5.842;2022-08-06T05:47:46;13.70;99.90
46766;DHT22;32527;51.986;5.842;2022-08-06T05:50:22;14.20;99.90
46766;DHT22;32527;51.986;5.842;2022-08-06T05:53:00;14.60;99.90
46766;DHT22;32527;51.986;5.842;2022-08-06T05:57:57;14.90;99.90
46766;DHT22;32527;51.986;5.842;2022-08-06T06:00:38;15.00;99.90
46766;DHT22;32527;51.986;5.842;2022-08-06T06:03:08;15.20;99.90
46766;DHT22;32527;51.986;5.842;2022-08-06T06:05:39;15.50;99.90
46766;DHT22;32527;51.986;5.842;2022-08-06T06:08:06;15.70;99.90
46766;DHT22;32527;51.986;5.842;2022-08-06T06:10:37;15.90;99.90
46766;DHT22;32527;51.986;5.842;2022-08-06T06:13:07;16.30;99.90
46766;DHT22;32527;51.986;5.842;2022-08-06T06:15:42;16.80;99.90
46766;DHT22;32527;51.986;5.842;2022-08-06T06:18:50;17.10;99.90
46766;DHT22;32527;51.986;5.842;2022-08-06T06:23:49;17.80;99.90
46766;DHT22;32527;51.986;5.842;2022-08-06T06:26:33;18.00;99.90
46766;DHT22;32527;51.986;5.842;2022-08-06T06:29:14;18.30;99.90
46766;DHT22;32527;51.986;5.842;2022-08-06T06:34:29;19.80;99.90
46766;DHT22;32527;51.986;5.842;2022-08-06T06:42:17;20.60;98.50
46766;DHT22;32527;51.986;5.842;2022-08-06T06:45:02;21.00;96.80
46766;DHT22;32527;51.986;5.842;2022-08-06T06:50:33;20.80;94.50
46766;DHT22;32527;51.986;5.842;2022-08-06T06:55:40;21.60;94.50
46766;DHT22;32527;51.986;5.842;2022-08-06T07:15:09;22.60;85.90
46766;DHT22;32527;51.986;5.842;2022-08-06T07:17:37;22.50;87.60
46766;DHT22;32527;51.986;5.842;2022-08-06T07:20:07;22.40;87.20
46766;DHT22;32527;51.986;5.842;2022-08-06T07:22:35;22.00;90.20
46766;DHT22;32527;51.986;5.842;2022-08-06T07:25:03;22.40;90.00
46766;DHT22;32527;51.986;5.842;2022-08-06T07:27:38;22.60;88.00
46766;DHT22;32527;51.986;5.842;2022-08-06T07:30:05;23.00;84.10
46766;DHT22;32527;51.986;5.842;2022-08-06T07:32:36;23.10;81.60
46766;DHT22;32527;51.986;5.842;2022-08-06T07:35:07;22.90;83.60
46766;DHT22;32527;51.986;5.842;2022-08-06T07:37:37;23.30;80.90
46766;DHT22;32527;51.986;5.842;2022-08-06T07:40:15;23.30;77.80
46766;DHT22;32527;51.986;5.842;2022-08-06T07:42:54;23.40;77.70
46766;DHT22;32527;51.986;5.842;2022-08-06T07:45:25;23.50;77.50
46766;DHT22;32527;51.986;5.842;2022-08-06T07:48:04;23.70;77.20
46766;DHT22;32527;51.986;5.842;2022-08-06T07:53:01;24.10;72.90
46766;DHT22;32527;51.986;5.842;2022-08-06T07:55:32;24.00;71.10
46766;DHT22;32527;51.986;5.842;2022-08-06T07:58:00;24.10;72.20
46766;DHT22;32527;51.986;5.842;2022-08-06T08:02:56;24.00;67.70
46766;DHT22;32527;51.986;5.842;2022-08-06T08:05:41;24.00;69.40
46766;DHT22;32527;51.986;5.842;2022-08-06T08:08:29;24.60;67.20
46766;DHT22;32527;51.986;5.842;2022-08-06T08:11:03;24.50;64.40
46766;DHT22;32527;51.986;5.842;2022-08-06T08:13:34;24.40;64.90
46766;DHT22;32527;51.986;5.842;2022-08-06T08:18:35;23.70;63.90
46766;DHT22;32527;51.986;5.842;2022-08-06T08:21:04;23.00;67.00
46766;DHT22;32527;51.986;5.842;2022-08-06T08:23:43;23.10;67.90
46766;DHT22;32527;51.986;5.842;2022-08-06T08:28:53;22.50;69.10
46766;DHT22;32527;51.986;5.842;2022-08-06T08:31:22;22.90;65.70
46766;DHT22;32527;51.986;5.842;2022-08-06T08:36:18;23.30;63.70
46766;DHT22;32527;51.986;5.842;2022-08-06T08:41:24;23.80;64.00
46766;DHT22;32527;51.986;5.842;2022-08-06T08:44:02;24.30;62.10
46766;DHT22;32527;51.986;5.842;2022-08-06T08:46:39;24.60;60.10
46766;DHT22;32527;51.986;5.842;2022-08-06T08:49:51;25.00;59.50
46766;DHT22;32527;51.986;5.842;2022-08-06T08:52:08;24.90;56.20
46766;DHT22;32527;51.986;5.842;2022-08-06T08:54:37;24.40;57.00
46766;DHT22;32527;51.986;5.842;2022-08-06T08:57:07;24.80;57.20
46766;DHT22;32527;51.986;5.842;2022-08-06T08:59:37;24.90;56.60
46766;DHT22;32527;51.986;5.842;2022-08-06T09:02:12;24.60;57.20
46766;DHT22;32527;51.986;5.842;2022-08-06T09:04:40;24.20;58.50
46766;DHT22;32527;51.986;5.842;2022-08-06T09:09:43;23.10;60.20
46766;DHT22;32527;51.986;5.842;2022-08-06T09:12:14;23.90;57.80
46766;DHT22;32527;51.986;5.842;2022-08-06T09:17:12;24.60;56.30
46766;DHT22;32527;51.986;5.842;2022-08-06T09:19:44;25.20;55.20
46766;DHT22;32527;51.986;5.842;2022-08-06T09:24:43;26.20;51.60
46766;DHT22;32527;51.986;5.842;2022-08-06T09:27:19;26.30;51.40
46766;DHT22;32527;51.986;5.842;2022-08-06T09:29:59;26.50;49.70
46766;DHT22;32527;51.986;5.842;2022-08-06T09:32:46;26.40;50.50
46766;DHT22;32527;51.986;5.842;2022-08-06T09:35:21;27.40;45.40
46766;DHT22;32527;51.986;5.842;2022-08-06T09:38:07;27.70;45.90
46766;DHT22;32527;51.986;5.842;2022-08-06T09:40:40;28.20;43.60
46766;DHT22;32527;51.986;5.842;2022-08-06T09:43:25;28.10;42.50
46766;DHT22;32527;51.986;5.842;2022-08-06T09:55:55;28.30;43.70
46766;DHT22;32527;51.986;5.842;2022-08-06T09:58:33;28.10;44.20
46766;DHT22;32527;51.986;5.842;2022-08-06T10:01:22;27.80;45.40
46766;DHT22;32527;51.986;5.842;2022-08-06T10:03:54;28.70;45.20
46766;DHT22;32527;51.986;5.842;2022-08-06T10:06:26;28.80;46.20
46766;DHT22;32527;51.986;5.842;2022-08-06T10:09:08;28.70;44.20
46766;DHT22;32527;51.986;5.842;2022-08-06T10:11:39;29.00;43.30
46766;DHT22;32527;51.986;5.842;2022-08-06T10:14:30;28.80;44.70
46766;DHT22;32527;51.986;5.842;2022-08-06T10:17:12;29.10;43.50
46766;DHT22;32527;51.986;5.842;2022-08-06T10:20:11;28.20;42.40
46766;DHT22;32527;51.986;5.842;2022-08-06T10:22:58;26.80;44.00
46766;DHT22;32527;51.986;5.842;2022-08-06T10:25:36;25.30;47.20
46766;DHT22;32527;51.986;5.842;2022-08-06T10:30:47;26.00;47.00
46766;DHT22;32527;51.986;5.842;2022-08-06T10:33:24;26.60;47.40
46766;DHT22;32527;51.986;5.842;2022-08-06T10:36:12;27.30;44.50
46766;DHT22;32527;51.986;5.842;2022-08-06T10:38:51;26.60;45.40
46766;DHT22;32527;51.986;5.842;2022-08-06T10:41:25;26.50;45.00
46766;DHT22;32527;51.986;5.842;2022-08-06T10:44:06;27.00;44.80
46766;DHT22;32527;51.986;5.842;2022-08-06T10:46:40;26.30;45.70
46766;DHT22;32527;51.986;5.842;2022-08-06T10:49:08;25.50;48.30
46766;DHT22;32527;51.986;5.842;2022-08-06T10:51:52;24.90;50.60
46766;DHT22;32527;51.986;5.842;2022-08-06T10:54:21;24.10;52.30
46766;DHT22;32527;51.986;5.842;2022-08-06T10:59:31;22.80;56.00
46766;DHT22;32527;51.986;5.842;2022-08-06T11:02:06;22.50;55.50
46766;DHT22;32527;51.986;5.842;2022-08-06T11:04:43;22.90;56.40
46766;DHT22;32527;51.986;5.842;2022-08-06T11:15:57;29.20;42.90
46766;DHT22;32527;51.986;5.842;2022-08-06T11:19:11;30.10;41.00
46766;DHT22;32527;51.986;5.842;2022-08-06T11:30:11;29.50;40.50
46766;DHT22;32527;51.986;5.842;2022-08-06T11:32:51;30.20;41.50
46766;DHT22;32527;51.986;5.842;2022-08-06T11:35:39;26.20;46.80
46766;DHT22;32527;51.986;5.842;2022-08-06T11:38:08;25.30;47.50
46766;DHT22;32527;51.986;5.842;2022-08-06T11:40:55;24.30;49.30
46766;DHT22;32527;51.986;5.842;2022-08-06T11:51:56;23.00;53.50
46766;DHT22;32527;51.986;5.842;2022-08-06T12:05:32;22.70;52.20
46766;DHT22;32527;51.986;5.842;2022-08-06T12:16:37;23.20;51.10
46766;DHT22;32527;51.986;5.842;2022-08-06T12:19:05;23.70;51.90
46766;DHT22;32527;51.986;5.842;2022-08-06T12:21:32;23.60;51.40
46766;DHT22;32527;51.986;5.842;2022-08-06T12:26:30;23.30;51.70
46766;DHT22;32527;51.986;5.842;2022-08-06T12:29:01;23.00;52.60
46766;DHT22;32527;51.986;5.842;2022-08-06T12:31:30;22.80;55.60
46766;DHT22;32527;51.986;5.842;2022-08-06T12:34:00;22.70;54.90
46766;DHT22;32527;51.986;5.842;2022-08-06T12:36:30;22.60;54.00
46766;DHT22;32527;51.986;5.842;2022-08-06T12:39:00;22.50;53.50
46766;DHT22;32527;51.986;5.842;2022-08-06T12:41:39;22.40;53.80
46766;DHT22;32527;51.986;5.842;2022-08-06T12:51:27;23.00;51.70
46766;DHT22;32527;51.986;5.842;2022-08-06T12:56:24;22.80;52.00
46766;DHT22;32527;51.986;5.842;2022-08-06T12:59:08;22.70;51.80
46766;DHT22;32527;51.986;5.842;2022-08-06T13:01:43;22.40;53.70
46766;DHT22;32527;51.986;5.842;2022-08-06T13:06:41;22.30;53.90
46766;DHT22;32527;51.986;5.842;2022-08-06T13:14:09;22.40;54.10
46766;DHT22;32527;51.986;5.842;2022-08-06T13:16:44;22.50;53.80
46766;DHT22;32527;51.986;5.842;2022-08-06T13:19:13;22.50;53.10
46766;DHT22;32527;51.986;5.842;2022-08-06T13:21:41;22.50;52.50
46766;DHT22;32527;51.986;5.842;2022-08-06T13:24:27;22.60;54.30
46766;DHT22;32527;51.986;5.842;2022-08-06T13:26:54;22.50;53.70
46766;DHT22;32527;51.986;5.842;2022-08-06T13:29:26;22.60;52.80
46766;DHT22;32527;51.986;5.842;2022-08-06T13:32:05;22.40;52.50
46766;DHT22;32527;51.986;5.842;2022-08-06T13:34:48;22.30;52.60
46766;DHT22;32527;51.986;5.842;2022-08-06T13:37:14;22.40;53.80
46766;DHT22;32527;51.986;5.842;2022-08-06T13:39:52;22.50;54.20
46766;DHT22;32527;51.986;5.842;2022-08-06T13:42:18;22.30;53.30
46766;DHT22;32527;51.986;5.842;2022-08-06T13:44:45;22.30;55.60
46766;DHT22;32527;51.986;5.842;2022-08-06T13:47:13;22.20;54.10
46766;DHT22;32527;51.986;5.842;2022-08-06T13:49:42;22.10;53.70
46766;DHT22;32527;51.986;5.842;2022-08-06T13:52:09;22.10;53.80
46766;DHT22;32527;51.986;5.842;2022-08-06T13:54:34;22.10;56.00
46766;DHT22;32527;51.986;5.842;2022-08-06T13:57:00;22.10;54.00
46766;DHT22;32527;51.986;5.842;2022-08-06T13:59:29;22.20;54.90
46766;DHT22;32527;51.986;5.842;2022-08-06T14:02:02;22.20;53.70
46766;DHT22;32527;51.986;5.842;2022-08-06T14:04:28;22.30;52.50
46766;DHT22;32527;51.986;5.842;2022-08-06T14:06:56;22.40;52.80
46766;DHT22;32527;51.986;5.842;2022-08-06T14:09:25;22.50;53.90
46766;DHT22;32527;51.986;5.842;2022-08-06T14:11:56;22.50;53.60
46766;DHT22;32527;51.986;5.842;2022-08-06T14:14:23;22.60;54.00
46766;DHT22;32527;51.986;5.842;2022-08-06T14:16:49;22.80;53.90
46766;DHT22;32527;51.986;5.842;2022-08-06T14:19:14;22.60;54.40
46766;DHT22;32527;51.986;5.842;2022-08-06T14:21:40;22.40;54.90
46766;DHT22;32527;51.986;5.842;2022-08-06T14:24:06;22.50;54.00
46766;DHT22;32527;51.986;5.842;2022-08-06T14:29:03;20.10;53.10
46766;DHT22;32527;51.986;5.842;2022-08-06T14:31:31;22.40;54.80
46766;DHT22;32527;51.986;5.842;2022-08-06T14:33:57;22.40;54.60
46766;DHT22;32527;51.986;5.842;2022-08-06T14:36:23;22.40;54.00
46766;DHT22;32527;51.986;5.842;2022-08-06T14:38:49;22.30;54.50
46766;DHT22;32527;51.986;5.842;2022-08-06T14:41:15;22.30;55.40
46766;DHT22;32527;51.986;5.842;2022-08-06T14:43:59;22.30;55.60
46766;DHT22;32527;51.986;5.842;2022-08-06T14:46:43;22.40;55.00
46766;DHT22;32527;51.986;5.842;2022-08-06T14:49:09;22.20;54.70
46766;DHT22;32527;51.986;5.842;2022-08-06T14:51:35;22.20;54.00
46766;DHT22;32527;51.986;5.842;2022-08-06T14:54:00;22.20;54.30
46766;DHT22;32527;51.986;5.842;2022-08-06T14:56:26;22.20;55.20
46766;DHT22;32527;51.986;5.842;2022-08-06T14:58:51;22.10;55.80
46766;DHT22;32527;51.986;5.842;2022-08-06T15:01:17;22.10;54.50
46766;DHT22;32527;51.986;5.842;2022-08-06T15:03:43;22.10;55.00
46766;DHT22;32527;51.986;5.842;2022-08-06T15:06:08;22.10;55.90
46766;DHT22;32527;51.986;5.842;2022-08-06T15:08:34;22.10;55.20
46766;DHT22;32527;51.986;5.842;2022-08-06T15:11:01;21.90;55.90
46766;DHT22;32527;51.986;5.842;2022-08-06T15:13:26;22.10;57.20
46766;DHT22;32527;51.986;5.842;2022-08-06T15:15:52;22.20;57.80
46766;DHT22;32527;51.986;5.842;2022-08-06T15:18:18;22.10;57.10
46766;DHT22;32527;51.986;5.842;2022-08-06T15:20:43;21.90;56.20
46766;DHT22;32527;51.986;5.842;2022-08-06T15:23:09;21.90;57.90
46766;DHT22;32527;51.986;5.842;2022-08-06T15:25:34;21.90;56.30
46766;DHT22;32527;51.986;5.842;2022-08-06T15:28:00;21.90;57.20
46766;DHT22;32527;51.986;5.842;2022-08-06T15:30:27;21.90;58.90
46766;DHT22;32527;51.986;5.842;2022-08-06T15:32:52;21.90;56.40
46766;DHT22;32527;51.986;5.842;2022-08-06T15:35:20;21.80;55.80
46766;DHT22;32527;51.986;5.842;2022-08-06T15:37:46;21.80;56.50
46766;DHT22;32527;51.986;5.842;2022-08-06T15:40:11;21.70;57.90
46766;DHT22;32527;51.986;5.842;2022-08-06T15:42:37;21.80;58.50
46766;DHT22;32527;51.986;5.842;2022-08-06T15:45:03;21.70;58.00
46766;DHT22;32527;51.986;5.842;2022-08-06T15:47:29;21.60;57.60
46766;DHT22;32527;51.986;5.842;2022-08-06T15:49:56;21.50;58.60
46766;DHT22;32527;51.986;5.842;2022-08-06T15:52:21;21.40;57.80
46766;DHT22;32527;51.986;5.842;2022-08-06T15:54:47;21.30;58.50
46766;DHT22;32527;51.986;5.842;2022-08-06T15:57:13;21.30;58.30
46766;DHT22;32527;51.986;5.842;2022-08-06T15:59:41;21.20;59.00
46766;DHT22;32527;51.986;5.842;2022-08-06T16:02:07;21.20;58.80
46766;DHT22;32527;51.986;5.842;2022-08-06T16:04:32;21.20;59.60
46766;DHT22;32527;51.986;5.842;2022-08-06T16:06:58;21.30;58.50
46766;DHT22;32527;51.986;5.842;2022-08-06T16:09:24;21.10;58.70
46766;DHT22;32527;51.986;5.842;2022-08-06T16:11:49;21.20;59.20
46766;DHT22;32527;51.986;5.842;2022-08-06T16:14:15;21.20;59.00
46766;DHT22;32527;51.986;5.842;2022-08-06T16:16:40;21.10;59.10
46766;DHT22;32527;51.986;5.842;2022-08-06T16:19:06;21.00;58.70
46766;DHT22;32527;51.986;5.842;2022-08-06T16:21:32;21.20;58.80
46766;DHT22;32527;51.986;5.842;2022-08-06T16:23:59;21.20;59.10
46766;DHT22;32527;51.986;5.842;2022-08-06T16:26:26;21.40;58.30
46766;DHT22;32527;51.986;5.842;2022-08-06T16:28:51;21.30;58.50
46766;DHT22;32527;51.986;5.842;2022-08-06T16:31:17;21.40;59.10
46766;DHT22;32527;51.986;5.842;2022-08-06T16:33:42;21.40;59.10
46766;DHT22;32527;51.986;5.842;2022-08-06T16:36:08;21.50;58.80
46766;DHT22;32527;51.986;5.842;2022-08-06T16:38:33;21.60;58.50
46766;DHT22;32527;51.986;5.842;2022-08-06T16:40:59;21.60;58.60
46766;DHT22;32527;51.986;5.842;2022-08-06T16:43:25;21.60;58.60
46766;DHT22;32527;51.986;5.842;2022-08-06T16:45:51;21.60;58.60
46766;DHT22;32527;51.986;5.842;2022-08-06T16:48:17;21.50;59.50
46766;DHT22;32527;51.986;5.842;2022-08-06T16:50:45;21.40;58.90
46766;DHT22;32527;51.986;5.842;2022-08-06T16:53:11;21.30;59.60
46766;DHT22;32527;51.986;5.842;2022-08-06T16:55:37;21.30;60.40
46766;DHT22;32527;51.986;5.842;2022-08-06T16:58:02;21.30;60.20
46766;DHT22;32527;51.986;5.842;2022-08-06T17:00:34;21.20;61.40
46766;DHT22;32527;51.986;5.842;2022-08-06T17:03:01;21.10;61.50
46766;DHT22;32527;51.986;5.842;2022-08-06T17:05:27;21.10;61.60
46766;DHT22;32527;51.986;5.842;2022-08-06T17:07:53;21.00;61.00
46766;DHT22;32527;51.986;5.842;2022-08-06T17:10:18;20.80;59.60
46766;DHT22;32527;51.986;5.842;2022-08-06T17:12:46;20.70;60.70
46766;DHT22;32527;51.986;5.842;2022-08-06T17:15:12;20.80;61.40
46766;DHT22;32527;51.986;5.842;2022-08-06T17:17:41;20.80;60.50
46766;DHT22;32527;51.986;5.842;2022-08-06T17:20:07;20.70;61.80
46766;DHT22;32527;51.986;5.842;2022-08-06T17:22:33;20.60;61.70
46766;DHT22;32527;51.986;5.842;2022-08-06T17:24:59;20.60;61.80
46766;DHT22;32527;51.986;5.842;2022-08-06T17:27:25;20.50;61.80
46766;DHT22;32527;51.986;5.842;2022-08-06T17:29:50;20.50;62.40
46766;DHT22;32527;51.986;5.842;2022-08-06T17:32:18;20.40;62.00
46766;DHT22;32527;51.986;5.842;2022-08-06T17:34:44;20.40;62.10
46766;DHT22;32527;51.986;5.842;2022-08-06T17:37:09;20.40;62.40
46766;DHT22;32527;51.986;5.842;2022-08-06T17:39:35;20.30;62.20
46766;DHT22;32527;51.986;5.842;2022-08-06T17:42:01;20.30;62.80
46766;DHT22;32527;51.986;5.842;2022-08-06T17:44:27;20.30;63.30
46766;DHT22;32527;51.986;5.842;2022-08-06T17:46:53;20.10;62.90
46766;DHT22;32527;51.986;5.842;2022-08-06T17:49:19;19.60;63.00
46766;DHT22;32527;51.986;5.842;2022-08-06T17:51:47;20.20;64.00
46766;DHT22;32527;51.986;5.842;2022-08-06T17:54:16;20.50;64.80
46766;DHT22;32527;51.986;5.842;2022-08-06T17:56:42;20.10;64.80
46766;DHT22;32527;51.986;5.842;2022-08-06T17:59:10;20.10;63.90
46766;DHT22;32527;51.986;5.842;2022-08-06T18:01:36;20.10;63.80
46766;DHT22;32527;51.986;5.842;2022-08-06T18:04:02;20.10;64.30
46766;DHT22;32527;51.986;5.842;2022-08-06T18:06:35;20.10;64.50
46766;DHT22;32527;51.986;5.842;2022-08-06T18:09:01;20.10;64.50
46766;DHT22;32527;51.986;5.842;2022-08-06T18:11:28;20.10;65.00
46766;DHT22;32527;51.986;5.842;2022-08-06T18:13:53;20.00;65.20
46766;DHT22;32527;51.986;5.842;2022-08-06T18:16:20;20.00;63.80
46766;DHT22;32527;51.986;5.842;2022-08-06T18:18:46;20.00;64.10
46766;DHT22;32527;51.986;5.842;2022-08-06T18:21:17;19.90;64.00
46766;DHT22;32527;51.986;5.842;2022-08-06T18:23:44;19.90;64.60
46766;DHT22;32527;51.986;5.842;2022-08-06T18:26:10;19.90;64.90
46766;DHT22;32527;51.986;5.842;2022-08-06T18:28:36;19.80;65.70
46766;DHT22;32527;51.986;5.842;2022-08-06T18:31:03;19.90;65.60
46766;DHT22;32527;51.986;5.842;2022-08-06T18:33:35;19.60;65.70
46766;DHT22;32527;51.986;5.842;2022-08-06T18:36:02;19.70;66.10
46766;DHT22;32527;51.986;5.842;2022-08-06T18:38:28;19.70;67.10
46766;DHT22;32527;51.986;5.842;2022-08-06T18:40:54;19.60;68.00
46766;DHT22;32527;51.986;5.842;2022-08-06T18:43:28;19.70;68.20
46766;DHT22;32527;51.986;5.842;2022-08-06T18:45:54;19.60;68.20
46766;DHT22;32527;51.986;5.842;2022-08-06T18:48:21;19.60;68.50
46766;DHT22;32527;51.986;5.842;2022-08-06T18:50:47;19.50;68.90
46766;DHT22;32527;51.986;5.842;2022-08-06T18:53:13;19.50;69.10
46766;DHT22;32527;51.986;5.842;2022-08-06T18:55:38;19.50;69.30
46766;DHT22;32527;51.986;5.842;2022-08-06T18:58:04;19.50;69.60
46766;DHT22;32527;51.986;5.842;2022-08-06T19:00:29;19.50;70.20
46766;DHT22;32527;51.986;5.842;2022-08-06T19:02:55;19.40;70.30
46766;DHT22;32527;51.986;5.842;2022-08-06T19:05:21;19.30;71.30
46766;DHT22;32527;51.986;5.842;2022-08-06T19:07:47;19.30;71.60
46766;DHT22;32527;51.986;5.842;2022-08-06T19:10:16;19.70;74.00
46766;DHT22;32527;51.986;5.842;2022-08-06T19:12:43;19.30;74.10
46766;DHT22;32527;51.986;5.842;2022-08-06T19:15:09;19.60;74.50
46766;DHT22;32527;51.986;5.842;2022-08-06T19:17:38;19.20;75.00